createdAt,value
2022-09-06T00:01:42.410Z,1.20
2022-09-06T00:04:14.519Z,1.23
2022-09-06T00:06:41.900Z,1.33
2022-09-06T00:09:08.483Z,1.30
2022-09-06T00:11:35.019Z,1.10
2022-09-06T00:14:01.608Z,1.50
2022-09-06T00:16:30.454Z,1.10
2022-09-06T00:18:58.624Z,1.20
2022-09-06T00:21:26.603Z,1.40
2022-09-06T00:23:53.613Z,1.70
2022-09-06T00:26:20.659Z,1.37
2022-09-06T00:28:47.470Z,1.60
2022-09-06T00:31:15.970Z,1.60
2022-09-06T00:33:42.898Z,1.40
2022-09-06T00:36:12.147Z,1.60
2022-09-06T00:38:39.343Z,1.67
2022-09-06T00:41:07.337Z,1.60
2022-09-06T00:43:34.251Z,1.57
2022-09-06T00:46:02.127Z,1.50
2022-09-06T00:48:28.987Z,1.30
2022-09-06T00:51:00.631Z,1.53
2022-09-06T00:53:30.486Z,1.70
2022-09-06T00:55:57.166Z,1.37
2022-09-06T00:58:25.037Z,1.20
2022-09-06T01:00:51.679Z,1.10
2022-09-06T01:03:18.270Z,1.10
2022-09-06T01:05:54.647Z,1.10
2022-09-06T01:08:34.233Z,1.33
2022-09-06T01:11:24.074Z,1.07
2022-09-06T01:13:59.358Z,1.20
2022-09-06T01:16:33.257Z,1.20
2022-09-06T01:19:14.530Z,1.27
2022-09-06T01:21:49.453Z,1.03
2022-09-06T01:24:42.038Z,1.20
2022-09-06T01:28:05.551Z,1.20
2022-09-06T01:30:38.934Z,1.00
2022-09-06T01:33:12.743Z,1.10
2022-09-06T01:35:43.074Z,0.87
2022-09-06T01:38:10.416Z,0.90
2022-09-06T01:40:37.017Z,1.17
2022-09-06T01:43:10.218Z,1.10
2022-09-06T01:45:54.112Z,1.10
2022-09-06T01:48:26.768Z,1.23
2022-09-06T01:51:09.796Z,1.20
2022-09-06T01:53:54.834Z,1.30
2022-09-06T01:56:31.346Z,1.20
2022-09-06T01:59:16.847Z,1.60
2022-09-06T02:01:54.270Z,1.50
2022-09-06T02:04:26.477Z,1.27
2022-09-06T02:06:57.693Z,1.30
2022-09-06T02:09:26.720Z,1.37
2022-09-06T02:11:57.336Z,1.53
2022-09-06T02:14:29.119Z,1.43
2022-09-06T02:16:58.981Z,1.30
2022-09-06T02:19:32.805Z,1.40
2022-09-06T02:22:03.197Z,1.60
2022-09-06T02:24:33.215Z,2.47
2022-09-06T02:26:59.787Z,2.27
2022-09-06T02:29:26.768Z,2.17
2022-09-06T02:31:59.666Z,2.00
2022-09-06T02:34:26.403Z,1.60
2022-09-06T02:36:54.554Z,1.73
2022-09-06T02:39:21.134Z,1.47
2022-09-06T02:41:48.447Z,1.50
2022-09-06T02:44:15.293Z,1.40
2022-09-06T02:46:41.811Z,1.40
2022-09-06T02:49:09.704Z,1.63
2022-09-06T02:51:37.321Z,1.40
2022-09-06T02:54:04.105Z,1.40
2022-09-06T02:56:30.757Z,1.40
2022-09-06T02:58:57.331Z,1.43
2022-09-06T03:01:23.944Z,1.53
2022-09-06T03:03:50.525Z,1.80
2022-09-06T03:06:21.869Z,1.53
2022-09-06T03:08:48.532Z,1.40
2022-09-06T03:11:15.327Z,1.37
2022-09-06T03:13:41.893Z,1.43
2022-09-06T03:16:08.468Z,1.57
2022-09-06T03:18:35.064Z,1.13
2022-09-06T03:21:02.323Z,1.20
2022-09-06T03:23:30.268Z,1.50
2022-09-06T03:25:56.904Z,1.30
2022-09-06T03:28:24.164Z,1.60
2022-09-06T03:30:52.206Z,1.30
2022-09-06T03:33:19.960Z,1.27
2022-09-06T03:35:51.196Z,1.20
2022-09-06T03:38:18.373Z,1.43
2022-09-06T03:40:47.801Z,1.63
2022-09-06T03:43:16.443Z,1.57
2022-09-06T03:45:46.141Z,1.57
2022-09-06T03:48:13.699Z,1.80
2022-09-06T03:50:44.537Z,1.60
2022-09-06T03:53:11.089Z,1.33
2022-09-06T03:55:37.649Z,1.70
2022-09-06T03:58:05.628Z,1.60
2022-09-06T04:00:32.351Z,1.50
2022-09-06T04:03:01.709Z,1.73
2022-09-06T04:05:28.626Z,1.47
2022-09-06T04:07:55.166Z,1.50
2022-09-06T04:10:21.799Z,1.87
2022-09-06T04:12:48.324Z,1.80
2022-09-06T04:15:16.341Z,2.00
2022-09-06T04:17:44.232Z,1.57
2022-09-06T04:20:10.822Z,1.50
2022-09-06T04:22:37.550Z,1.50
2022-09-06T04:25:05.106Z,1.40
2022-09-06T04:27:31.756Z,1.53
2022-09-06T04:29:58.326Z,1.40
2022-09-06T04:32:26.287Z,1.53
2022-09-06T04:34:52.850Z,1.60
2022-09-06T04:37:19.394Z,1.40
2022-09-06T04:39:46.049Z,1.50
2022-09-06T04:42:12.946Z,1.70
2022-09-06T04:44:39.495Z,1.50
2022-09-06T04:47:09.589Z,1.53
2022-09-06T04:49:37.656Z,1.37
2022-09-06T04:52:04.573Z,1.30
2022-09-06T04:54:31.110Z,1.63
2022-09-06T04:56:57.716Z,1.53
2022-09-06T04:59:24.393Z,1.43
2022-09-06T05:01:51.001Z,1.33
2022-09-06T05:04:17.600Z,1.20
2022-09-06T05:06:45.508Z,1.50
2022-09-06T05:09:12.219Z,1.53
2022-09-06T05:11:38.767Z,1.33
2022-09-06T05:14:05.311Z,1.50
2022-09-06T05:16:31.930Z,1.40
2022-09-06T05:18:58.506Z,1.50
2022-09-06T05:21:25.152Z,1.50
2022-09-06T05:23:56.664Z,1.50
2022-09-06T05:26:25.166Z,2.13
2022-09-06T05:28:51.711Z,1.90
2022-09-06T05:31:26.170Z,1.97
2022-09-06T05:33:53.223Z,2.17
2022-09-06T05:36:19.778Z,1.80
2022-09-06T05:38:46.411Z,1.93
2022-09-06T05:41:14.352Z,1.70
2022-09-06T05:43:40.908Z,1.50
2022-09-06T05:46:08.143Z,1.87
2022-09-06T05:48:37.041Z,1.60
2022-09-06T05:51:06.028Z,1.57
2022-09-06T05:53:36.395Z,1.60
2022-09-06T05:56:03.470Z,1.57
2022-09-06T05:58:31.550Z,1.87
2022-09-06T06:01:05.350Z,1.67
2022-09-06T06:03:31.948Z,1.80
2022-09-06T06:05:58.495Z,2.00
2022-09-06T06:08:25.061Z,2.37
2022-09-06T06:10:51.603Z,1.80
2022-09-06T06:13:18.273Z,1.93
2022-09-06T06:15:46.162Z,1.90
2022-09-06T06:18:12.713Z,1.63
2022-09-06T06:20:39.241Z,1.60
2022-09-06T06:23:05.794Z,1.77
2022-09-06T06:25:32.328Z,1.80
2022-09-06T06:27:58.879Z,1.70
2022-09-06T06:30:25.412Z,2.03
2022-09-06T06:32:53.302Z,1.67
2022-09-06T06:35:19.851Z,1.50
2022-09-06T06:37:46.378Z,2.03
2022-09-06T06:40:13.151Z,2.03
2022-09-06T06:42:39.733Z,2.10
2022-09-06T06:45:07.831Z,1.60
2022-09-06T06:47:34.404Z,1.60
2022-09-06T06:50:02.289Z,1.97
2022-09-06T06:52:28.990Z,1.70
2022-09-06T06:54:55.566Z,1.80
2022-09-06T06:57:22.096Z,1.43
2022-09-06T06:59:48.635Z,1.50
2022-09-06T07:02:15.298Z,1.80
2022-09-06T07:04:42.078Z,1.80
2022-09-06T07:12:43.146Z,1.50
2022-09-06T07:15:09.881Z,1.50
2022-09-06T07:17:36.468Z,1.60
2022-09-06T07:20:18.397Z,1.40
2022-09-06T07:22:46.668Z,1.67
2022-09-06T07:25:16.586Z,1.70
2022-09-06T07:27:47.955Z,2.00
2022-09-06T07:30:15.607Z,1.90
2022-09-06T07:32:42.195Z,1.80
2022-09-06T07:35:09.431Z,2.00
2022-09-06T07:37:35.986Z,1.90
2022-09-06T07:40:04.565Z,1.90
2022-09-06T07:42:35.634Z,2.00
2022-09-06T07:45:03.211Z,1.97
2022-09-06T07:55:37.679Z,1.60
2022-09-06T07:58:04.269Z,1.90
2022-09-06T08:00:30.854Z,1.93
2022-09-06T08:02:57.415Z,2.17
2022-09-06T08:10:58.362Z,1.57
2022-09-06T08:13:24.918Z,1.67
2022-09-06T08:15:58.177Z,1.70
2022-09-06T08:18:24.805Z,1.73
2022-09-06T08:20:51.389Z,1.40
2022-09-06T08:23:17.930Z,1.13
2022-09-06T08:25:44.470Z,1.20
2022-09-06T08:28:12.360Z,1.47
2022-09-06T08:30:38.938Z,1.10
2022-09-06T08:33:05.516Z,1.27
2022-09-06T08:35:32.087Z,1.40
2022-09-06T08:37:58.631Z,1.40
2022-09-06T08:40:25.207Z,1.57
2022-09-06T08:42:52.883Z,1.70
2022-09-06T08:45:20.815Z,1.60
2022-09-06T08:47:47.677Z,1.37
2022-09-06T08:50:14.265Z,1.63
2022-09-06T08:53:15.699Z,1.53
2022-09-06T08:55:46.453Z,1.30
2022-09-06T08:58:33.046Z,1.53
2022-09-06T09:01:04.264Z,1.30
2022-09-06T09:03:33.510Z,1.10
2022-09-06T09:06:00.149Z,1.30
2022-09-06T09:08:30.274Z,1.30
2022-09-06T09:11:01.995Z,1.20
2022-09-06T09:13:33.756Z,1.20
2022-09-06T09:16:02.200Z,1.47
2022-09-06T09:18:33.259Z,1.20
2022-09-06T09:21:00.024Z,1.03
2022-09-06T09:23:28.694Z,1.07
2022-09-06T09:26:00.136Z,0.87
2022-09-06T09:28:26.719Z,1.30
2022-09-06T09:30:55.633Z,1.20
2022-09-06T09:33:27.147Z,1.23
2022-09-06T09:35:54.201Z,1.23
2022-09-06T09:38:23.397Z,1.33
2022-09-06T09:40:52.152Z,1.17
2022-09-06T09:43:22.984Z,1.10
2022-09-06T09:46:17.732Z,1.20
2022-09-06T09:49:01.052Z,1.20
2022-09-06T09:51:28.374Z,1.10
2022-09-06T09:53:57.286Z,1.00
2022-09-06T09:56:35.652Z,1.30
2022-09-06T09:59:03.024Z,0.95
2022-09-06T10:01:31.952Z,1.15
2022-09-06T10:07:08.527Z,1.20
2022-09-06T10:09:37.851Z,1.40
2022-09-06T10:12:05.208Z,1.38
2022-09-06T10:14:33.438Z,1.27
2022-09-06T10:17:00.536Z,1.10
2022-09-06T10:19:39.311Z,0.88
2022-09-06T10:22:18.684Z,1.00
2022-09-06T10:25:04.741Z,0.90
2022-09-06T10:27:31.430Z,1.20
2022-09-06T10:30:03.129Z,1.10
2022-09-06T10:32:40.835Z,1.02
2022-09-06T10:35:19.825Z,1.10
2022-09-06T10:37:59.623Z,1.00
2022-09-06T10:40:33.244Z,1.00
2022-09-06T10:43:00.997Z,1.10
2022-09-06T10:45:30.843Z,1.00
2022-09-06T10:48:00.666Z,1.10
2022-09-06T10:50:37.736Z,0.90
2022-09-06T10:53:10.495Z,1.00
2022-09-06T10:55:39.578Z,0.90
2022-09-06T10:58:22.182Z,1.10
2022-09-06T11:00:50.921Z,0.80
2022-09-06T11:06:12.955Z,0.90
2022-09-06T11:08:47.186Z,0.80
2022-09-06T11:11:20.375Z,1.00
2022-09-06T11:13:47.031Z,0.90
2022-09-06T11:16:19.255Z,0.90
2022-09-06T11:18:50.208Z,0.80
2022-09-06T11:21:40.077Z,0.80
2022-09-06T11:24:12.629Z,0.80
2022-09-06T11:26:50.567Z,0.90
2022-09-06T11:29:19.753Z,0.85
2022-09-06T11:34:39.164Z,0.90
2022-09-06T11:37:20.179Z,1.00
2022-09-06T11:43:16.651Z,0.90
2022-09-06T11:45:46.216Z,0.93
2022-09-06T11:48:48.262Z,0.80
2022-09-06T11:51:31.364Z,0.90
2022-09-06T11:54:20.025Z,0.85
2022-09-06T11:56:53.747Z,0.93
2022-09-06T11:59:32.793Z,1.20
2022-09-06T12:02:00.955Z,0.80
2022-09-06T12:05:00.997Z,0.80
2022-09-06T12:07:28.521Z,0.93
2022-09-06T12:09:56.761Z,0.80
2022-09-06T12:12:41.135Z,1.10
2022-09-06T12:15:24.237Z,1.00
2022-09-06T12:17:50.978Z,0.93
2022-09-06T12:21:01.200Z,0.90
2022-09-06T12:23:43.158Z,0.80
2022-09-06T12:26:12.172Z,0.93
2022-09-06T12:28:46.593Z,1.13
2022-09-06T12:31:30.828Z,1.02
2022-09-06T12:33:58.372Z,0.90
2022-09-06T12:36:27.559Z,0.75
2022-09-06T12:38:55.701Z,0.82
2022-09-06T12:41:24.511Z,1.00
2022-09-06T12:43:51.374Z,1.00
2022-09-06T12:46:18.695Z,1.20
2022-09-06T12:48:59.851Z,0.80
2022-09-06T12:51:26.442Z,0.98
2022-09-06T12:53:54.016Z,0.82
2022-09-06T12:56:23.466Z,0.77
2022-09-06T12:58:50.091Z,0.80
2022-09-06T13:01:23.478Z,0.80
2022-09-06T13:03:58.132Z,0.70
2022-09-06T13:06:27.372Z,0.90
2022-09-06T13:08:55.561Z,0.80
2022-09-06T13:11:28.095Z,1.00
2022-09-06T13:13:55.258Z,0.98
2022-09-06T13:16:24.966Z,1.00
2022-09-06T13:18:52.169Z,0.90
2022-09-06T13:21:27.251Z,1.02
2022-09-06T13:23:53.910Z,0.80
2022-09-06T13:26:40.071Z,0.73
2022-09-06T13:29:11.022Z,0.80
2022-09-06T13:31:37.996Z,0.82
2022-09-06T13:34:04.732Z,0.98
2022-09-06T13:36:32.281Z,0.60
2022-09-06T13:38:58.959Z,0.77
2022-09-06T13:41:40.840Z,0.85
2022-09-06T13:44:18.155Z,1.00
2022-09-06T13:46:44.777Z,0.77
2022-09-06T13:49:11.351Z,0.85
2022-09-06T13:51:38.547Z,0.82
2022-09-06T13:54:05.769Z,1.00
2022-09-06T13:56:32.346Z,0.80
2022-09-06T13:59:00.682Z,0.82
2022-09-06T14:01:27.371Z,0.90
2022-09-06T14:03:54.602Z,0.73
2022-09-06T14:06:21.191Z,1.17
2022-09-06T14:09:06.542Z,0.70
2022-09-06T14:11:35.359Z,0.70
2022-09-06T14:14:03.504Z,1.00
2022-09-06T14:16:30.164Z,0.70
2022-09-06T14:18:57.021Z,1.10
2022-09-06T14:21:24.231Z,1.10
2022-09-06T14:23:51.241Z,0.90
2022-09-06T14:26:18.528Z,1.00
2022-09-06T14:28:45.219Z,0.80
2022-09-06T14:31:15.211Z,0.90
2022-09-06T14:33:42.366Z,0.80
2022-09-06T14:36:11.708Z,0.85
2022-09-06T14:38:39.528Z,0.70
2022-09-06T14:41:07.840Z,0.80
2022-09-06T14:43:35.438Z,1.13
2022-09-06T14:46:03.939Z,0.80
2022-09-06T14:48:32.385Z,0.95
2022-09-06T14:51:06.327Z,1.20
2022-09-06T14:53:40.134Z,0.90
2022-09-06T14:56:07.920Z,0.85
2022-09-06T14:58:35.865Z,0.90
2022-09-06T15:01:07.631Z,1.00
2022-09-06T15:03:35.980Z,1.30
2022-09-06T15:06:02.890Z,0.98
2022-09-06T15:08:29.480Z,1.00
2022-09-06T15:10:56.288Z,1.02
2022-09-06T15:13:22.974Z,0.90
2022-09-06T15:15:49.718Z,0.85
2022-09-06T15:18:16.619Z,1.00
2022-09-06T15:20:44.565Z,0.88
2022-09-06T15:23:26.546Z,1.08
2022-09-06T15:25:53.209Z,1.10
2022-09-06T15:28:20.268Z,0.90
2022-09-06T15:30:47.547Z,0.98
2022-09-06T15:33:14.545Z,0.90
2022-09-06T15:35:41.995Z,0.93
2022-09-06T15:38:11.125Z,1.23
2022-09-06T15:40:38.153Z,1.10
2022-09-06T15:43:04.973Z,1.00
2022-09-06T15:45:37.682Z,0.88
2022-09-06T15:48:04.256Z,0.90
2022-09-06T15:50:50.370Z,1.00
2022-09-06T15:53:18.775Z,0.90
2022-09-06T15:55:45.355Z,1.00
2022-09-06T15:58:11.946Z,1.13
2022-09-06T16:00:38.526Z,0.90
2022-09-06T16:03:05.191Z,0.95
2022-09-06T16:08:22.330Z,0.90
2022-09-06T16:10:48.898Z,1.00
2022-09-06T16:13:15.477Z,1.02
2022-09-06T16:15:42.076Z,1.00
2022-09-06T16:18:08.718Z,0.80
2022-09-06T16:20:37.136Z,0.90
2022-09-06T16:23:03.720Z,1.02
2022-09-06T16:25:31.666Z,1.20
2022-09-06T16:27:58.240Z,0.90
2022-09-06T16:30:24.814Z,0.93
2022-09-06T16:32:51.419Z,0.90
2022-09-06T16:35:18.136Z,1.08
2022-09-06T16:37:44.762Z,0.98
2022-09-06T16:40:12.149Z,0.88
2022-09-06T16:42:40.106Z,1.02
2022-09-06T16:45:07.250Z,0.88
2022-09-06T16:47:33.856Z,1.05
2022-09-06T16:50:00.398Z,1.30
2022-09-06T16:52:26.975Z,0.90
2022-09-06T16:54:53.543Z,1.00
2022-09-06T16:57:20.115Z,1.10
2022-09-06T16:59:48.101Z,1.10
2022-09-06T17:02:14.799Z,1.03
2022-09-06T17:04:41.451Z,1.10
2022-09-06T17:07:08.043Z,0.90
2022-09-06T17:09:34.643Z,1.00
2022-09-06T17:12:01.351Z,1.00
2022-09-06T17:14:28.130Z,1.03
2022-09-06T17:16:56.158Z,1.00
2022-09-06T17:19:22.791Z,1.10
2022-09-06T17:21:49.376Z,1.00
2022-09-06T17:24:15.981Z,1.00
2022-09-06T17:26:42.574Z,1.23
2022-09-06T17:29:09.390Z,1.30
2022-09-06T17:31:36.701Z,1.20
2022-09-06T17:34:05.254Z,1.00
2022-09-06T17:36:32.650Z,1.03
2022-09-06T17:39:00.562Z,1.43
2022-09-06T17:41:30.255Z,1.10
2022-09-06T17:43:56.983Z,1.20
2022-09-06T17:46:28.692Z,1.50
2022-09-06T17:48:55.691Z,1.20
2022-09-06T17:51:23.965Z,1.37
2022-09-06T17:53:50.911Z,1.27
2022-09-06T17:56:18.209Z,1.20
2022-09-06T17:58:51.890Z,1.40
2022-09-06T18:01:18.582Z,1.20
2022-09-06T18:03:45.274Z,1.23
2022-09-06T18:06:13.852Z,1.20
2022-09-06T18:08:43.552Z,1.20
2022-09-06T18:11:11.812Z,1.30
2022-09-06T18:13:38.461Z,1.13
2022-09-06T18:16:05.908Z,1.10
2022-09-06T18:18:33.698Z,1.53
2022-09-06T18:21:00.940Z,1.17
2022-09-06T18:23:29.223Z,1.30
2022-09-06T18:25:58.112Z,1.30
2022-09-06T18:28:25.052Z,1.40
2022-09-06T18:30:51.699Z,1.20
2022-09-06T18:33:18.298Z,1.70
2022-09-06T18:35:44.832Z,1.50
2022-09-06T18:38:11.426Z,1.57
2022-09-06T18:40:38.281Z,1.37
2022-09-06T18:43:06.252Z,1.30
2022-09-06T18:45:32.876Z,1.40
2022-09-06T18:47:59.461Z,1.30
2022-09-06T18:50:26.096Z,1.13
2022-09-06T18:52:52.727Z,1.30
2022-09-06T18:55:19.292Z,1.20
2022-09-06T18:57:45.859Z,1.30
2022-09-06T19:00:15.277Z,1.20
2022-09-06T19:02:41.911Z,1.00
2022-09-06T19:05:08.986Z,1.27
2022-09-06T19:07:35.597Z,1.40
2022-09-06T19:10:02.257Z,1.07
2022-09-06T19:12:28.828Z,0.97
2022-09-06T19:14:55.418Z,1.00
2022-09-06T19:17:23.349Z,0.93
2022-09-06T19:19:49.935Z,0.90
2022-09-06T19:22:16.500Z,0.90
2022-09-06T19:24:43.145Z,0.90
2022-09-06T19:27:10.029Z,0.90
2022-09-06T19:29:36.635Z,0.97
2022-09-06T19:32:03.573Z,1.00
2022-09-06T19:34:31.744Z,0.70
2022-09-06T19:36:58.294Z,1.00
2022-09-06T19:39:25.172Z,1.30
2022-09-06T19:41:51.763Z,1.03
2022-09-06T19:44:18.309Z,1.30
2022-09-06T19:46:46.135Z,1.20
2022-09-06T19:49:13.974Z,1.00
2022-09-06T19:51:42.024Z,1.47
2022-09-06T19:54:08.595Z,1.20
2022-09-06T19:56:35.648Z,1.20
2022-09-06T19:59:05.262Z,1.30
2022-09-06T20:01:33.374Z,1.30
2022-09-06T20:04:01.177Z,1.33
2022-09-06T20:06:27.964Z,1.20
2022-09-06T20:08:57.030Z,1.03
2022-09-06T20:11:25.279Z,1.00
2022-09-06T20:13:51.955Z,1.07
2022-09-06T20:16:20.821Z,0.90
2022-09-06T20:18:47.853Z,1.40
2022-09-06T20:21:14.603Z,1.00
2022-09-06T20:23:41.500Z,1.03
2022-09-06T20:26:11.848Z,1.07
2022-09-06T20:28:38.598Z,1.10
2022-09-06T20:31:07.142Z,1.20
2022-09-06T20:33:34.644Z,1.20
2022-09-06T20:36:02.508Z,1.10
2022-09-06T20:38:29.544Z,1.07
2022-09-06T20:41:00.949Z,0.90
2022-09-06T20:43:29.525Z,1.10
2022-09-06T20:45:56.137Z,1.50
2022-09-06T20:48:22.755Z,1.27
2022-09-06T20:50:56.381Z,1.00
2022-09-06T20:53:23.140Z,1.03
2022-09-06T20:55:55.880Z,0.97
2022-09-06T20:58:22.456Z,1.30
2022-09-06T21:00:50.481Z,0.90
2022-09-06T21:03:17.097Z,0.90
2022-09-06T21:05:44.120Z,1.20
2022-09-06T21:08:10.702Z,0.93
2022-09-06T21:10:37.372Z,1.20
2022-09-06T21:13:04.155Z,1.40
2022-09-06T21:15:33.170Z,1.00
2022-09-06T21:18:01.111Z,1.10
2022-09-06T21:20:27.704Z,1.00
2022-09-06T21:22:54.281Z,1.30
2022-09-06T21:25:20.933Z,1.50
2022-09-06T21:27:47.598Z,1.20
2022-09-06T21:30:14.925Z,1.20
2022-09-06T21:32:41.587Z,1.30
2022-09-06T21:35:09.718Z,1.30
2022-09-06T21:37:36.399Z,1.17
2022-09-06T21:40:03.406Z,1.30
2022-09-06T21:42:30.088Z,1.20
2022-09-06T21:44:56.674Z,1.20
2022-09-06T21:47:23.253Z,1.10
2022-09-06T21:49:49.848Z,1.40
2022-09-06T21:52:17.801Z,1.30
2022-09-06T21:54:44.376Z,1.30
2022-09-06T21:57:10.932Z,0.93
2022-09-06T21:59:37.565Z,1.10
2022-09-06T22:02:04.261Z,1.10
2022-09-06T22:04:30.838Z,1.23
2022-09-06T22:06:57.456Z,1.00
2022-09-06T22:09:25.550Z,1.13
2022-09-06T22:11:52.152Z,1.13
2022-09-06T22:14:18.819Z,1.07
2022-09-06T22:16:45.562Z,1.10
2022-09-06T22:19:12.554Z,1.07
2022-09-06T22:21:39.648Z,1.00
2022-09-06T22:24:07.807Z,0.97
2022-09-06T22:26:37.040Z,1.10
2022-09-06T22:29:06.440Z,0.90
2022-09-06T22:31:34.497Z,1.03
2022-09-06T22:34:01.884Z,1.03
2022-09-06T22:36:28.839Z,1.10
2022-09-06T22:38:55.920Z,0.90
2022-09-06T22:41:22.715Z,1.00
2022-09-06T22:43:50.681Z,1.00
2022-09-06T22:46:17.440Z,1.10
2022-09-06T22:48:44.157Z,1.10
2022-09-06T22:51:10.720Z,0.90
2022-09-06T22:53:37.325Z,0.90
2022-09-06T22:56:03.924Z,1.17
2022-09-06T22:58:30.762Z,1.37
2022-09-06T23:01:06.037Z,1.43
2022-09-06T23:03:32.758Z,1.20
2022-09-06T23:05:59.986Z,1.30
2022-09-06T23:08:26.751Z,1.43
2022-09-06T23:10:53.353Z,1.30
2022-09-06T23:13:20.029Z,1.20
2022-09-06T23:15:46.689Z,1.40
2022-09-06T23:18:14.713Z,1.07
2022-09-06T23:20:41.838Z,1.17
2022-09-06T23:23:08.595Z,1.20
2022-09-06T23:25:37.125Z,1.10
2022-09-06T23:28:03.682Z,1.13
2022-09-06T23:30:30.260Z,1.30
2022-09-06T23:32:57.125Z,1.20
2022-09-06T23:35:25.118Z,1.20
2022-09-06T23:37:51.877Z,1.20
2022-09-06T23:40:18.759Z,1.00
2022-09-06T23:42:45.454Z,1.30
2022-09-06T23:45:12.147Z,1.50
2022-09-06T23:47:38.758Z,1.20
2022-09-06T23:50:06.305Z,1.10
2022-09-06T23:52:34.302Z,1.30
2022-09-06T23:55:00.862Z,1.40
2022-09-06T23:57:27.428Z,1.40
2022-09-06T23:59:54.007Z,1.10
